sensor_id;sensor_type;location;lat;lon;timestamp;P1;durP1;ratioP1;P2;durP2;ratioP2
78840;SDS011;68379;47.190;27.558;2023-09-19T00:00:42;9.10;;;5.90;;
78840;SDS011;68379;47.190;27.558;2023-09-19T00:03:32;7.10;;;5.50;;
78840;SDS011;68379;47.190;27.558;2023-09-19T00:06:04;9.10;;;6.00;;
78840;SDS011;68379;47.190;27.558;2023-09-19T00:08:34;7.90;;;5.40;;
78840;SDS011;68379;47.190;27.558;2023-09-19T00:11:03;9.20;;;5.50;;
78840;SDS011;68379;47.190;27.558;2023-09-19T00:13:33;9.90;;;6.20;;
78840;SDS011;68379;47.190;27.558;2023-09-19T00:16:06;8.10;;;5.10;;
78840;SDS011;68379;47.190;27.558;2023-09-19T00:18:38;7.50;;;5.30;;
78840;SDS011;68379;47.190;27.558;2023-09-19T00:21:07;9.20;;;5.90;;
78840;SDS011;68379;47.190;27.558;2023-09-19T00:23:37;8.50;;;5.60;;
78840;SDS011;68379;47.190;27.558;2023-09-19T00:26:10;7.00;;;5.40;;
78840;SDS011;68379;47.190;27.558;2023-09-19T00:28:40;8.50;;;5.80;;
78840;SDS011;68379;47.190;27.558;2023-09-19T00:31:09;8.00;;;5.30;;
78840;SDS011;68379;47.190;27.558;2023-09-19T00:33:38;9.30;;;5.60;;
78840;SDS011;68379;47.190;27.558;2023-09-19T00:36:06;7.70;;;5.80;;
78840;SDS011;68379;47.190;27.558;2023-09-19T00:38:35;10.30;;;5.50;;
78840;SDS011;68379;47.190;27.558;2023-09-19T00:41:04;8.50;;;5.60;;
78840;SDS011;68379;47.190;27.558;2023-09-19T00:43:34;9.40;;;5.40;;
78840;SDS011;68379;47.190;27.558;2023-09-19T00:46:03;7.80;;;5.40;;
78840;SDS011;68379;47.190;27.558;2023-09-19T00:48:33;11.30;;;5.90;;
78840;SDS011;68379;47.190;27.558;2023-09-19T00:51:08;9.60;;;6.00;;
78840;SDS011;68379;47.190;27.558;2023-09-19T00:53:38;10.00;;;6.10;;
78840;SDS011;68379;47.190;27.558;2023-09-19T00:56:13;7.80;;;5.50;;
78840;SDS011;68379;47.190;27.558;2023-09-19T00:58:45;7.30;;;4.90;;
78840;SDS011;68379;47.190;27.558;2023-09-19T01:01:14;8.70;;;5.30;;
78840;SDS011;68379;47.190;27.558;2023-09-19T01:03:44;7.50;;;4.90;;
78840;SDS011;68379;47.190;27.558;2023-09-19T01:06:13;8.30;;;5.00;;
78840;SDS011;68379;47.190;27.558;2023-09-19T01:08:42;10.70;;;6.10;;
78840;SDS011;68379;47.190;27.558;2023-09-19T01:11:13;8.20;;;5.40;;
78840;SDS011;68379;47.190;27.558;2023-09-19T01:13:53;8.00;;;4.90;;
78840;SDS011;68379;47.190;27.558;2023-09-19T01:16:33;6.60;;;4.50;;
78840;SDS011;68379;47.190;27.558;2023-09-19T01:19:24;7.10;;;4.70;;
78840;SDS011;68379;47.190;27.558;2023-09-19T01:22:13;7.40;;;4.60;;
78840;SDS011;68379;47.190;27.558;2023-09-19T01:30:21;7.90;;;5.70;;
78840;SDS011;68379;47.190;27.558;2023-09-19T01:32:56;7.60;;;5.30;;
78840;SDS011;68379;47.190;27.558;2023-09-19T01:35:26;10.30;;;6.00;;
78840;SDS011;68379;47.190;27.558;2023-09-19T01:37:55;7.70;;;4.70;;
78840;SDS011;68379;47.190;27.558;2023-09-19T01:40:23;7.80;;;5.00;;
78840;SDS011;68379;47.190;27.558;2023-09-19T01:42:54;7.70;;;5.00;;
78840;SDS011;68379;47.190;27.558;2023-09-19T01:45:29;7.20;;;5.40;;
78840;SDS011;68379;47.190;27.558;2023-09-19T01:48:11;7.50;;;5.20;;
78840;SDS011;68379;47.190;27.558;2023-09-19T01:50:49;8.30;;;5.40;;
78840;SDS011;68379;47.190;27.558;2023-09-19T01:53:27;8.50;;;5.50;;
78840;SDS011;68379;47.190;27.558;2023-09-19T01:56:05;7.80;;;4.90;;
78840;SDS011;68379;47.190;27.558;2023-09-19T01:58:41;7.60;;;5.40;;
78840;SDS011;68379;47.190;27.558;2023-09-19T02:01:16;6.60;;;4.70;;
78840;SDS011;68379;47.190;27.558;2023-09-19T02:03:47;6.70;;;5.20;;
78840;SDS011;68379;47.190;27.558;2023-09-19T02:06:17;10.30;;;5.60;;
78840;SDS011;68379;47.190;27.558;2023-09-19T02:08:48;9.30;;;5.40;;
78840;SDS011;68379;47.190;27.558;2023-09-19T03:02:28;5.80;;;4.60;;
78840;SDS011;68379;47.190;27.558;2023-09-19T03:04:59;9.20;;;5.30;;
78840;SDS011;68379;47.190;27.558;2023-09-19T03:07:30;8.30;;;5.50;;
78840;SDS011;68379;47.190;27.558;2023-09-19T03:09:59;7.70;;;5.10;;
78840;SDS011;68379;47.190;27.558;2023-09-19T03:12:29;10.40;;;5.60;;
78840;SDS011;68379;47.190;27.558;2023-09-19T03:15:00;7.20;;;5.90;;
78840;SDS011;68379;47.190;27.558;2023-09-19T03:17:31;12.40;;;6.60;;
78840;SDS011;68379;47.190;27.558;2023-09-19T03:20:00;8.70;;;5.60;;
78840;SDS011;68379;47.190;27.558;2023-09-19T03:22:29;7.90;;;5.30;;
78840;SDS011;68379;47.190;27.558;2023-09-19T03:25:18;7.50;;;5.70;;
78840;SDS011;68379;47.190;27.558;2023-09-19T03:27:50;12.60;;;6.40;;
78840;SDS011;68379;47.190;27.558;2023-09-19T03:30:20;9.00;;;5.90;;
78840;SDS011;68379;47.190;27.558;2023-09-19T03:32:49;8.90;;;6.10;;
78840;SDS011;68379;47.190;27.558;2023-09-19T03:35:19;7.90;;;5.30;;
78840;SDS011;68379;47.190;27.558;2023-09-19T03:37:48;7.60;;;5.40;;
78840;SDS011;68379;47.190;27.558;2023-09-19T03:40:19;9.30;;;5.40;;
78840;SDS011;68379;47.190;27.558;2023-09-19T03:42:48;10.00;;;6.40;;
78840;SDS011;68379;47.190;27.558;2023-09-19T03:45:18;10.20;;;6.60;;
78840;SDS011;68379;47.190;27.558;2023-09-19T03:47:47;9.50;;;6.00;;
78840;SDS011;68379;47.190;27.558;2023-09-19T03:50:17;9.80;;;6.30;;
78840;SDS011;68379;47.190;27.558;2023-09-19T03:52:46;8.20;;;6.00;;
78840;SDS011;68379;47.190;27.558;2023-09-19T03:55:15;7.70;;;5.40;;
78840;SDS011;68379;47.190;27.558;2023-09-19T03:57:46;10.70;;;5.80;;
78840;SDS011;68379;47.190;27.558;2023-09-19T04:00:17;6.50;;;4.90;;
78840;SDS011;68379;47.190;27.558;2023-09-19T04:02:48;7.50;;;5.30;;
78840;SDS011;68379;47.190;27.558;2023-09-19T04:05:19;10.00;;;5.80;;
78840;SDS011;68379;47.190;27.558;2023-09-19T04:07:48;8.70;;;5.90;;
78840;SDS011;68379;47.190;27.558;2023-09-19T04:10:17;9.10;;;5.90;;
78840;SDS011;68379;47.190;27.558;2023-09-19T04:12:53;8.90;;;5.70;;
78840;SDS011;68379;47.190;27.558;2023-09-19T04:15:22;9.30;;;5.80;;
78840;SDS011;68379;47.190;27.558;2023-09-19T04:17:52;8.60;;;5.30;;
78840;SDS011;68379;47.190;27.558;2023-09-19T04:20:21;8.30;;;5.50;;
78840;SDS011;68379;47.190;27.558;2023-09-19T04:22:50;8.30;;;5.10;;
78840;SDS011;68379;47.190;27.558;2023-09-19T04:25:19;10.40;;;6.40;;
78840;SDS011;68379;47.190;27.558;2023-09-19T04:27:48;7.90;;;5.70;;
78840;SDS011;68379;47.190;27.558;2023-09-19T04:30:18;12.70;;;6.30;;
78840;SDS011;68379;47.190;27.558;2023-09-19T04:32:48;9.80;;;5.90;;
78840;SDS011;68379;47.190;27.558;2023-09-19T04:35:18;14.00;;;6.00;;
78840;SDS011;68379;47.190;27.558;2023-09-19T04:37:47;7.90;;;5.60;;
78840;SDS011;68379;47.190;27.558;2023-09-19T04:40:18;11.30;;;5.50;;
78840;SDS011;68379;47.190;27.558;2023-09-19T04:42:53;8.20;;;5.30;;
78840;SDS011;68379;47.190;27.558;2023-09-19T04:45:23;10.20;;;5.60;;
78840;SDS011;68379;47.190;27.558;2023-09-19T04:47:53;11.40;;;5.70;;
78840;SDS011;68379;47.190;27.558;2023-09-19T04:50:23;10.80;;;6.00;;
78840;SDS011;68379;47.190;27.558;2023-09-19T04:52:53;8.00;;;5.20;;
78840;SDS011;68379;47.190;27.558;2023-09-19T04:55:22;12.20;;;5.10;;
78840;SDS011;68379;47.190;27.558;2023-09-19T04:57:51;10.10;;;5.40;;
78840;SDS011;68379;47.190;27.558;2023-09-19T05:00:20;7.40;;;5.30;;
78840;SDS011;68379;47.190;27.558;2023-09-19T05:02:51;10.50;;;5.60;;
78840;SDS011;68379;47.190;27.558;2023-09-19T05:05:23;7.50;;;5.20;;
78840;SDS011;68379;47.190;27.558;2023-09-19T05:07:53;9.80;;;5.80;;
78840;SDS011;68379;47.190;27.558;2023-09-19T05:10:22;7.50;;;5.30;;
78840;SDS011;68379;47.190;27.558;2023-09-19T05:12:53;8.10;;;5.00;;
78840;SDS011;68379;47.190;27.558;2023-09-19T05:15:22;9.60;;;5.10;;
78840;SDS011;68379;47.190;27.558;2023-09-19T05:17:52;10.20;;;5.60;;
78840;SDS011;68379;47.190;27.558;2023-09-19T05:20:22;8.60;;;5.10;;
78840;SDS011;68379;47.190;27.558;2023-09-19T05:22:58;8.00;;;5.10;;
78840;SDS011;68379;47.190;27.558;2023-09-19T05:25:33;9.60;;;5.50;;
78840;SDS011;68379;47.190;27.558;2023-09-19T05:28:05;11.90;;;5.30;;
78840;SDS011;68379;47.190;27.558;2023-09-19T05:30:35;8.80;;;5.30;;
78840;SDS011;68379;47.190;27.558;2023-09-19T05:33:05;6.50;;;5.20;;
78840;SDS011;68379;47.190;27.558;2023-09-19T05:35:35;7.10;;;5.30;;
78840;SDS011;68379;47.190;27.558;2023-09-19T05:38:06;9.50;;;5.40;;
78840;SDS011;68379;47.190;27.558;2023-09-19T05:40:36;9.30;;;5.20;;
78840;SDS011;68379;47.190;27.558;2023-09-19T05:43:09;8.60;;;4.70;;
78840;SDS011;68379;47.190;27.558;2023-09-19T05:45:38;6.20;;;4.70;;
78840;SDS011;68379;47.190;27.558;2023-09-19T05:48:08;7.90;;;5.10;;
78840;SDS011;68379;47.190;27.558;2023-09-19T05:50:38;8.30;;;4.80;;
78840;SDS011;68379;47.190;27.558;2023-09-19T05:53:08;6.20;;;4.20;;
78840;SDS011;68379;47.190;27.558;2023-09-19T05:55:39;7.50;;;4.40;;
78840;SDS011;68379;47.190;27.558;2023-09-19T05:58:08;9.70;;;5.20;;
78840;SDS011;68379;47.190;27.558;2023-09-19T06:00:41;6.80;;;4.20;;
78840;SDS011;68379;47.190;27.558;2023-09-19T06:03:11;7.20;;;4.80;;
78840;SDS011;68379;47.190;27.558;2023-09-19T06:05:41;11.30;;;4.60;;
78840;SDS011;68379;47.190;27.558;2023-09-19T06:08:11;7.40;;;4.40;;
78840;SDS011;68379;47.190;27.558;2023-09-19T06:10:39;6.10;;;4.80;;
78840;SDS011;68379;47.190;27.558;2023-09-19T06:13:08;7.80;;;4.80;;
78840;SDS011;68379;47.190;27.558;2023-09-19T06:15:38;7.50;;;4.10;;
78840;SDS011;68379;47.190;27.558;2023-09-19T06:18:10;7.20;;;4.80;;
78840;SDS011;68379;47.190;27.558;2023-09-19T06:20:44;7.30;;;4.30;;
78840;SDS011;68379;47.190;27.558;2023-09-19T06:23:13;5.50;;;3.90;;
78840;SDS011;68379;47.190;27.558;2023-09-19T06:25:43;7.30;;;4.30;;
78840;SDS011;68379;47.190;27.558;2023-09-19T06:28:12;7.30;;;3.90;;
78840;SDS011;68379;47.190;27.558;2023-09-19T06:30:41;6.20;;;3.90;;
78840;SDS011;68379;47.190;27.558;2023-09-19T06:33:11;6.60;;;3.50;;
78840;SDS011;68379;47.190;27.558;2023-09-19T06:35:40;5.90;;;4.10;;
78840;SDS011;68379;47.190;27.558;2023-09-19T06:38:12;7.00;;;3.50;;
78840;SDS011;68379;47.190;27.558;2023-09-19T06:40:42;6.40;;;3.50;;
78840;SDS011;68379;47.190;27.558;2023-09-19T06:43:11;4.40;;;3.20;;
78840;SDS011;68379;47.190;27.558;2023-09-19T06:45:41;5.90;;;3.10;;
78840;SDS011;68379;47.190;27.558;2023-09-19T06:48:10;6.70;;;3.60;;
78840;SDS011;68379;47.190;27.558;2023-09-19T06:50:39;6.50;;;3.80;;
78840;SDS011;68379;47.190;27.558;2023-09-19T06:53:08;5.80;;;3.30;;
78840;SDS011;68379;47.190;27.558;2023-09-19T06:55:37;4.70;;;3.80;;
78840;SDS011;68379;47.190;27.558;2023-09-19T06:58:06;5.00;;;3.20;;
78840;SDS011;68379;47.190;27.558;2023-09-19T07:00:35;6.50;;;3.60;;
78840;SDS011;68379;47.190;27.558;2023-09-19T07:03:06;5.40;;;3.00;;
78840;SDS011;68379;47.190;27.558;2023-09-19T07:05:39;5.10;;;3.10;;
78840;SDS011;68379;47.190;27.558;2023-09-19T07:08:10;5.50;;;3.50;;
78840;SDS011;68379;47.190;27.558;2023-09-19T07:10:39;7.80;;;2.80;;
78840;SDS011;68379;47.190;27.558;2023-09-19T07:13:16;4.90;;;2.70;;
78840;SDS011;68379;47.190;27.558;2023-09-19T07:15:45;4.90;;;2.70;;
78840;SDS011;68379;47.190;27.558;2023-09-19T07:18:14;8.00;;;3.40;;
78840;SDS011;68379;47.190;27.558;2023-09-19T07:20:44;6.70;;;3.00;;
78840;SDS011;68379;47.190;27.558;2023-09-19T07:23:16;5.40;;;2.60;;
78840;SDS011;68379;47.190;27.558;2023-09-19T07:25:47;6.70;;;3.10;;
78840;SDS011;68379;47.190;27.558;2023-09-19T07:28:16;5.80;;;3.00;;
78840;SDS011;68379;47.190;27.558;2023-09-19T07:30:46;5.60;;;2.80;;
78840;SDS011;68379;47.190;27.558;2023-09-19T07:33:14;6.60;;;2.70;;
78840;SDS011;68379;47.190;27.558;2023-09-19T07:35:46;4.80;;;3.30;;
78840;SDS011;68379;47.190;27.558;2023-09-19T07:38:15;4.90;;;3.00;;
78840;SDS011;68379;47.190;27.558;2023-09-19T07:40:44;4.50;;;2.70;;
78840;SDS011;68379;47.190;27.558;2023-09-19T07:43:13;6.40;;;3.00;;
78840;SDS011;68379;47.190;27.558;2023-09-19T07:45:42;4.70;;;2.70;;
78840;SDS011;68379;47.190;27.558;2023-09-19T07:48:11;5.20;;;3.00;;
78840;SDS011;68379;47.190;27.558;2023-09-19T07:50:42;5.00;;;3.00;;
78840;SDS011;68379;47.190;27.558;2023-09-19T07:53:10;5.00;;;2.50;;
78840;SDS011;68379;47.190;27.558;2023-09-19T07:55:40;6.40;;;2.90;;
78840;SDS011;68379;47.190;27.558;2023-09-19T07:58:09;4.50;;;3.00;;
78840;SDS011;68379;47.190;27.558;2023-09-19T08:00:40;7.50;;;3.00;;
78840;SDS011;68379;47.190;27.558;2023-09-19T08:03:09;6.70;;;2.90;;
78840;SDS011;68379;47.190;27.558;2023-09-19T08:05:42;4.50;;;3.00;;
78840;SDS011;68379;47.190;27.558;2023-09-19T08:08:12;5.80;;;3.20;;
78840;SDS011;68379;47.190;27.558;2023-09-19T08:10:41;6.20;;;3.10;;
78840;SDS011;68379;47.190;27.558;2023-09-19T08:13:12;5.50;;;2.70;;
78840;SDS011;68379;47.190;27.558;2023-09-19T08:15:44;4.00;;;3.00;;
78840;SDS011;68379;47.190;27.558;2023-09-19T08:18:13;7.00;;;3.10;;
78840;SDS011;68379;47.190;27.558;2023-09-19T08:20:42;5.20;;;2.60;;
78840;SDS011;68379;47.190;27.558;2023-09-19T08:23:17;7.70;;;3.00;;
78840;SDS011;68379;47.190;27.558;2023-09-19T08:25:48;3.20;;;2.60;;
78840;SDS011;68379;47.190;27.558;2023-09-19T08:28:17;3.40;;;2.50;;
78840;SDS011;68379;47.190;27.558;2023-09-19T08:30:50;5.80;;;2.80;;
78840;SDS011;68379;47.190;27.558;2023-09-19T08:33:22;5.70;;;2.60;;
78840;SDS011;68379;47.190;27.558;2023-09-19T08:35:51;4.90;;;2.50;;
78840;SDS011;68379;47.190;27.558;2023-09-19T08:38:23;3.00;;;2.10;;
78840;SDS011;68379;47.190;27.558;2023-09-19T08:40:58;7.30;;;2.90;;
78840;SDS011;68379;47.190;27.558;2023-09-19T08:43:28;4.40;;;2.60;;
78840;SDS011;68379;47.190;27.558;2023-09-19T08:45:58;6.00;;;3.10;;
78840;SDS011;68379;47.190;27.558;2023-09-19T08:48:41;6.30;;;2.60;;
78840;SDS011;68379;47.190;27.558;2023-09-19T08:51:25;6.50;;;2.70;;
78840;SDS011;68379;47.190;27.558;2023-09-19T08:54:04;8.40;;;2.20;;
78840;SDS011;68379;47.190;27.558;2023-09-19T08:56:36;4.70;;;2.60;;
78840;SDS011;68379;47.190;27.558;2023-09-19T08:59:08;6.20;;;2.30;;
78840;SDS011;68379;47.190;27.558;2023-09-19T09:01:38;7.60;;;2.50;;
78840;SDS011;68379;47.190;27.558;2023-09-19T09:04:09;5.00;;;2.50;;
78840;SDS011;68379;47.190;27.558;2023-09-19T09:06:41;5.30;;;2.20;;
78840;SDS011;68379;47.190;27.558;2023-09-19T09:09:12;7.90;;;2.60;;
78840;SDS011;68379;47.190;27.558;2023-09-19T09:11:41;4.40;;;2.40;;
78840;SDS011;68379;47.190;27.558;2023-09-19T09:14:11;4.00;;;2.10;;
78840;SDS011;68379;47.190;27.558;2023-09-19T09:16:41;4.50;;;2.50;;
78840;SDS011;68379;47.190;27.558;2023-09-19T09:19:12;7.40;;;2.70;;
78840;SDS011;68379;47.190;27.558;2023-09-19T09:21:41;5.50;;;2.30;;
78840;SDS011;68379;47.190;27.558;2023-09-19T09:27:04;4.60;;;2.70;;
78840;SDS011;68379;47.190;27.558;2023-09-19T09:29:42;4.20;;;2.10;;
78840;SDS011;68379;47.190;27.558;2023-09-19T09:32:17;3.90;;;2.20;;
78840;SDS011;68379;47.190;27.558;2023-09-19T09:34:49;4.90;;;2.80;;
78840;SDS011;68379;47.190;27.558;2023-09-19T09:37:19;5.10;;;2.60;;
78840;SDS011;68379;47.190;27.558;2023-09-19T09:39:53;6.60;;;3.10;;
78840;SDS011;68379;47.190;27.558;2023-09-19T09:42:30;7.40;;;2.90;;
78840;SDS011;68379;47.190;27.558;2023-09-19T09:45:18;5.80;;;2.50;;
78840;SDS011;68379;47.190;27.558;2023-09-19T09:48:05;3.90;;;2.90;;
78840;SDS011;68379;47.190;27.558;2023-09-19T09:50:46;4.00;;;3.00;;
78840;SDS011;68379;47.190;27.558;2023-09-19T09:53:24;5.10;;;2.60;;
78840;SDS011;68379;47.190;27.558;2023-09-19T09:55:59;6.40;;;2.70;;
78840;SDS011;68379;47.190;27.558;2023-09-19T09:58:33;4.70;;;2.70;;
78840;SDS011;68379;47.190;27.558;2023-09-19T10:01:04;5.80;;;3.00;;
78840;SDS011;68379;47.190;27.558;2023-09-19T10:03:36;5.50;;;3.00;;
78840;SDS011;68379;47.190;27.558;2023-09-19T10:06:12;4.50;;;2.40;;
78840;SDS011;68379;47.190;27.558;2023-09-19T10:09:04;6.80;;;2.60;;
78840;SDS011;68379;47.190;27.558;2023-09-19T10:11:44;6.20;;;3.10;;
78840;SDS011;68379;47.190;27.558;2023-09-19T10:14:15;8.50;;;3.40;;
78840;SDS011;68379;47.190;27.558;2023-09-19T10:16:46;5.30;;;2.70;;
78840;SDS011;68379;47.190;27.558;2023-09-19T10:19:21;6.70;;;2.70;;
78840;SDS011;68379;47.190;27.558;2023-09-19T10:22:02;5.80;;;2.80;;
78840;SDS011;68379;47.190;27.558;2023-09-19T10:24:33;4.50;;;2.40;;
78840;SDS011;68379;47.190;27.558;2023-09-19T10:27:05;5.80;;;2.80;;
78840;SDS011;68379;47.190;27.558;2023-09-19T10:29:36;4.00;;;2.80;;
78840;SDS011;68379;47.190;27.558;2023-09-19T10:32:08;8.60;;;3.10;;
78840;SDS011;68379;47.190;27.558;2023-09-19T10:34:39;6.30;;;3.10;;
78840;SDS011;68379;47.190;27.558;2023-09-19T10:37:10;7.30;;;2.60;;
78840;SDS011;68379;47.190;27.558;2023-09-19T10:39:47;5.40;;;2.70;;
78840;SDS011;68379;47.190;27.558;2023-09-19T10:42:19;5.20;;;2.90;;
78840;SDS011;68379;47.190;27.558;2023-09-19T10:44:52;5.90;;;3.10;;
78840;SDS011;68379;47.190;27.558;2023-09-19T10:47:22;5.20;;;2.70;;
78840;SDS011;68379;47.190;27.558;2023-09-19T10:49:52;7.00;;;3.10;;
78840;SDS011;68379;47.190;27.558;2023-09-19T10:52:22;4.70;;;3.10;;
78840;SDS011;68379;47.190;27.558;2023-09-19T10:54:53;6.40;;;2.90;;
78840;SDS011;68379;47.190;27.558;2023-09-19T10:57:26;6.80;;;3.10;;
78840;SDS011;68379;47.190;27.558;2023-09-19T11:00:04;7.10;;;3.30;;
78840;SDS011;68379;47.190;27.558;2023-09-19T11:06:01;5.20;;;3.40;;
78840;SDS011;68379;47.190;27.558;2023-09-19T11:11:40;5.20;;;3.00;;
78840;SDS011;68379;47.190;27.558;2023-09-19T11:14:30;5.20;;;3.30;;
78840;SDS011;68379;47.190;27.558;2023-09-19T11:23:19;7.10;;;3.10;;
78840;SDS011;68379;47.190;27.558;2023-09-19T11:25:54;6.30;;;2.90;;
78840;SDS011;68379;47.190;27.558;2023-09-19T11:28:32;3.70;;;2.50;;
78840;SDS011;68379;47.190;27.558;2023-09-19T11:34:39;5.70;;;2.20;;
78840;SDS011;68379;47.190;27.558;2023-09-19T11:40:52;4.60;;;2.40;;
78840;SDS011;68379;47.190;27.558;2023-09-19T11:47:02;5.30;;;2.70;;
78840;SDS011;68379;47.190;27.558;2023-09-19T11:49:32;5.60;;;2.70;;
78840;SDS011;68379;47.190;27.558;2023-09-19T11:52:07;5.20;;;2.60;;
78840;SDS011;68379;47.190;27.558;2023-09-19T11:54:37;3.30;;;2.60;;
78840;SDS011;68379;47.190;27.558;2023-09-19T11:57:10;8.60;;;2.70;;
78840;SDS011;68379;47.190;27.558;2023-09-19T11:59:48;6.60;;;2.40;;
78840;SDS011;68379;47.190;27.558;2023-09-19T12:05:08;3.90;;;2.80;;
78840;SDS011;68379;47.190;27.558;2023-09-19T12:07:43;5.90;;;2.50;;
78840;SDS011;68379;47.190;27.558;2023-09-19T12:10:15;5.10;;;2.70;;
78840;SDS011;68379;47.190;27.558;2023-09-19T12:12:48;5.00;;;2.70;;
78840;SDS011;68379;47.190;27.558;2023-09-19T12:15:23;4.00;;;2.60;;
78840;SDS011;68379;47.190;27.558;2023-09-19T12:17:55;5.70;;;2.30;;
78840;SDS011;68379;47.190;27.558;2023-09-19T12:20:24;5.70;;;2.20;;
78840;SDS011;68379;47.190;27.558;2023-09-19T12:23:13;6.00;;;2.50;;
78840;SDS011;68379;47.190;27.558;2023-09-19T12:25:43;5.50;;;2.40;;
78840;SDS011;68379;47.190;27.558;2023-09-19T12:28:14;9.40;;;2.80;;
78840;SDS011;68379;47.190;27.558;2023-09-19T12:30:44;4.20;;;2.60;;
78840;SDS011;68379;47.190;27.558;2023-09-19T12:33:17;5.40;;;2.40;;
78840;SDS011;68379;47.190;27.558;2023-09-19T12:35:47;3.90;;;2.90;;
78840;SDS011;68379;47.190;27.558;2023-09-19T12:38:25;4.50;;;2.70;;
78840;SDS011;68379;47.190;27.558;2023-09-19T12:40:56;5.80;;;2.60;;
78840;SDS011;68379;47.190;27.558;2023-09-19T12:43:27;4.50;;;2.60;;
78840;SDS011;68379;47.190;27.558;2023-09-19T12:46:00;8.80;;;2.30;;
78840;SDS011;68379;47.190;27.558;2023-09-19T12:48:29;3.80;;;2.40;;
78840;SDS011;68379;47.190;27.558;2023-09-19T12:51:04;4.80;;;2.40;;
78840;SDS011;68379;47.190;27.558;2023-09-19T12:53:35;4.20;;;2.50;;
78840;SDS011;68379;47.190;27.558;2023-09-19T12:58:48;4.90;;;2.70;;
78840;SDS011;68379;47.190;27.558;2023-09-19T13:01:21;4.50;;;2.40;;
78840;SDS011;68379;47.190;27.558;2023-09-19T13:04:16;4.30;;;2.80;;
78840;SDS011;68379;47.190;27.558;2023-09-19T13:06:46;3.10;;;2.20;;
78840;SDS011;68379;47.190;27.558;2023-09-19T13:09:17;6.60;;;2.60;;
78840;SDS011;68379;47.190;27.558;2023-09-19T13:11:47;6.00;;;2.50;;
78840;SDS011;68379;47.190;27.558;2023-09-19T13:14:18;7.40;;;2.70;;
78840;SDS011;68379;47.190;27.558;2023-09-19T13:16:59;5.10;;;2.70;;
78840;SDS011;68379;47.190;27.558;2023-09-19T13:19:41;3.00;;;2.30;;
78840;SDS011;68379;47.190;27.558;2023-09-19T13:25:09;3.60;;;2.50;;
78840;SDS011;68379;47.190;27.558;2023-09-19T13:27:41;3.40;;;2.50;;
78840;SDS011;68379;47.190;27.558;2023-09-19T13:30:12;3.80;;;2.50;;
78840;SDS011;68379;47.190;27.558;2023-09-19T13:32:42;4.00;;;2.30;;
78840;SDS011;68379;47.190;27.558;2023-09-19T13:35:12;4.30;;;2.50;;
78840;SDS011;68379;47.190;27.558;2023-09-19T13:37:41;4.30;;;2.60;;
78840;SDS011;68379;47.190;27.558;2023-09-19T13:40:13;5.20;;;2.60;;
78840;SDS011;68379;47.190;27.558;2023-09-19T13:42:44;4.20;;;2.90;;
78840;SDS011;68379;47.190;27.558;2023-09-19T13:45:13;4.00;;;2.70;;
78840;SDS011;68379;47.190;27.558;2023-09-19T13:47:44;4.20;;;2.50;;
78840;SDS011;68379;47.190;27.558;2023-09-19T13:50:13;6.00;;;2.60;;
78840;SDS011;68379;47.190;27.558;2023-09-19T13:52:42;4.20;;;2.70;;
78840;SDS011;68379;47.190;27.558;2023-09-19T13:55:11;4.10;;;2.70;;
78840;SDS011;68379;47.190;27.558;2023-09-19T13:57:41;5.80;;;2.50;;
78840;SDS011;68379;47.190;27.558;2023-09-19T14:00:12;3.50;;;2.10;;
78840;SDS011;68379;47.190;27.558;2023-09-19T14:02:43;3.60;;;2.20;;
78840;SDS011;68379;47.190;27.558;2023-09-19T14:05:13;5.30;;;1.90;;
78840;SDS011;68379;47.190;27.558;2023-09-19T14:07:43;4.00;;;2.20;;
78840;SDS011;68379;47.190;27.558;2023-09-19T14:10:12;5.10;;;2.30;;
78840;SDS011;68379;47.190;27.558;2023-09-19T14:12:42;3.60;;;1.80;;
78840;SDS011;68379;47.190;27.558;2023-09-19T14:15:13;4.50;;;2.00;;
78840;SDS011;68379;47.190;27.558;2023-09-19T14:17:41;3.30;;;2.10;;
78840;SDS011;68379;47.190;27.558;2023-09-19T14:20:12;3.00;;;1.90;;
78840;SDS011;68379;47.190;27.558;2023-09-19T14:22:42;4.20;;;2.20;;
78840;SDS011;68379;47.190;27.558;2023-09-19T14:25:11;7.30;;;2.90;;
78840;SDS011;68379;47.190;27.558;2023-09-19T14:27:40;5.30;;;2.10;;
78840;SDS011;68379;47.190;27.558;2023-09-19T14:30:10;4.90;;;2.10;;
78840;SDS011;68379;47.190;27.558;2023-09-19T14:32:40;3.20;;;2.30;;
78840;SDS011;68379;47.190;27.558;2023-09-19T14:35:09;5.30;;;2.60;;
78840;SDS011;68379;47.190;27.558;2023-09-19T14:37:40;6.10;;;2.50;;
78840;SDS011;68379;47.190;27.558;2023-09-19T14:40:10;6.10;;;2.40;;
78840;SDS011;68379;47.190;27.558;2023-09-19T14:42:42;5.40;;;2.10;;
78840;SDS011;68379;47.190;27.558;2023-09-19T14:45:11;3.40;;;2.00;;
78840;SDS011;68379;47.190;27.558;2023-09-19T14:47:43;4.70;;;2.10;;
78840;SDS011;68379;47.190;27.558;2023-09-19T14:50:13;3.70;;;2.10;;
78840;SDS011;68379;47.190;27.558;2023-09-19T14:52:43;4.90;;;2.30;;
78840;SDS011;68379;47.190;27.558;2023-09-19T14:55:12;4.30;;;2.30;;
78840;SDS011;68379;47.190;27.558;2023-09-19T14:57:42;6.50;;;2.80;;
78840;SDS011;68379;47.190;27.558;2023-09-19T15:00:14;5.30;;;2.50;;
78840;SDS011;68379;47.190;27.558;2023-09-19T15:02:43;3.80;;;2.90;;
78840;SDS011;68379;47.190;27.558;2023-09-19T15:05:15;3.90;;;2.40;;
78840;SDS011;68379;47.190;27.558;2023-09-19T15:07:44;6.80;;;2.70;;
78840;SDS011;68379;47.190;27.558;2023-09-19T15:10:13;4.90;;;2.80;;
78840;SDS011;68379;47.190;27.558;2023-09-19T15:12:43;4.50;;;2.70;;
78840;SDS011;68379;47.190;27.558;2023-09-19T15:15:12;4.20;;;3.10;;
78840;SDS011;68379;47.190;27.558;2023-09-19T15:17:42;4.40;;;3.00;;
78840;SDS011;68379;47.190;27.558;2023-09-19T15:20:12;6.90;;;3.00;;
78840;SDS011;68379;47.190;27.558;2023-09-19T15:22:41;6.40;;;3.30;;
78840;SDS011;68379;47.190;27.558;2023-09-19T15:25:10;5.70;;;3.10;;
78840;SDS011;68379;47.190;27.558;2023-09-19T15:27:39;4.80;;;2.90;;
78840;SDS011;68379;47.190;27.558;2023-09-19T15:30:09;5.80;;;3.30;;
78840;SDS011;68379;47.190;27.558;2023-09-19T15:32:42;8.30;;;3.60;;
78840;SDS011;68379;47.190;27.558;2023-09-19T15:35:11;5.00;;;3.00;;
78840;SDS011;68379;47.190;27.558;2023-09-19T15:37:45;6.00;;;3.30;;
78840;SDS011;68379;47.190;27.558;2023-09-19T15:40:14;6.00;;;3.30;;
78840;SDS011;68379;47.190;27.558;2023-09-19T15:42:43;6.70;;;3.30;;
78840;SDS011;68379;47.190;27.558;2023-09-19T15:45:12;6.20;;;3.10;;
78840;SDS011;68379;47.190;27.558;2023-09-19T15:47:42;4.40;;;3.20;;
78840;SDS011;68379;47.190;27.558;2023-09-19T15:50:11;6.70;;;3.60;;
78840;SDS011;68379;47.190;27.558;2023-09-19T15:52:42;6.40;;;3.70;;
78840;SDS011;68379;47.190;27.558;2023-09-19T15:55:12;5.40;;;4.00;;
78840;SDS011;68379;47.190;27.558;2023-09-19T15:57:42;6.20;;;3.60;;
78840;SDS011;68379;47.190;27.558;2023-09-19T16:00:13;6.70;;;3.60;;
78840;SDS011;68379;47.190;27.558;2023-09-19T16:02:45;9.40;;;3.80;;
78840;SDS011;68379;47.190;27.558;2023-09-19T16:05:17;8.40;;;4.30;;
78840;SDS011;68379;47.190;27.558;2023-09-19T16:07:46;5.30;;;3.50;;
78840;SDS011;68379;47.190;27.558;2023-09-19T16:10:16;4.50;;;3.20;;
78840;SDS011;68379;47.190;27.558;2023-09-19T16:12:45;6.00;;;3.60;;
78840;SDS011;68379;47.190;27.558;2023-09-19T16:15:14;8.30;;;3.90;;
78840;SDS011;68379;47.190;27.558;2023-09-19T16:17:43;6.40;;;3.50;;
78840;SDS011;68379;47.190;27.558;2023-09-19T16:20:12;7.80;;;3.80;;
78840;SDS011;68379;47.190;27.558;2023-09-19T16:22:46;4.90;;;2.90;;
78840;SDS011;68379;47.190;27.558;2023-09-19T16:25:15;5.60;;;3.60;;
78840;SDS011;68379;47.190;27.558;2023-09-19T16:27:44;7.40;;;3.90;;
78840;SDS011;68379;47.190;27.558;2023-09-19T16:30:15;7.10;;;4.30;;